Time;durP1;ratioP1;P1;durP2;ratioP2;P2;SDS_P1;SDS_P2;PMS_P1;PMS_P2;Temp;Humidity;BMP_temperature;BMP_pressure;BME280_temperature;BME280_humidity;BME280_pressure;Samples;Min_cycle;Max_cycle;Signal;HPM_P1;HPM_P2
2022/08/21 00:01:50;;;;;;;7.78;2.10;;;;;;;18.03;50.61;100813.34;5061048;28;20063;-49
2022/08/21 00:04:16;;;;;;;6.65;2.20;;;;;;;17.99;50.39;100812.16;5078644;28;20369;-53
2022/08/21 00:06:42;;;;;;;3.47;1.52;;;;;;;17.89;50.48;100809.22;5060055;28;20025;-53
2022/08/21 00:09:09;;;;;;;5.88;1.42;;;;;;;17.89;50.82;100815.47;5059932;28;20039;-53
2022/08/21 00:11:37;;;;;;;7.07;1.75;;;;;;;17.74;51.03;100799.56;5077079;28;20028;-53
2022/08/21 00:14:05;;;;;;;4.10;1.50;;;;;;;17.80;51.25;100814.13;5060684;28;20115;-50
2022/08/21 00:16:32;;;;;;;2.22;1.27;;;;;;;17.68;51.55;100805.09;5060296;28;20024;-50
2022/08/21 00:18:58;;;;;;;7.93;2.22;;;;;;;17.65;52.76;100813.72;5077497;28;20063;-53
2022/08/21 00:21:25;;;;;;;4.15;1.70;;;;;;;17.44;52.43;100796.91;5042241;28;20052;-52
2022/08/21 00:23:51;;;;;;;4.30;1.60;;;;;;;17.46;52.07;100802.06;5076572;28;20032;-52
2022/08/21 00:26:18;;;;;;;7.88;1.83;;;;;;;17.51;52.65;100816.63;5075742;28;20032;-50
2022/08/21 00:28:45;;;;;;;2.83;1.25;;;;;;;17.47;52.25;100801.03;5059143;28;20074;-51
2022/08/21 00:31:12;;;;;;;3.10;1.30;;;;;;;17.39;52.30;100788.63;5077023;28;20023;-52
2022/08/21 00:33:38;;;;;;;3.13;1.23;;;;;;;17.50;52.44;100797.88;5076793;28;20029;-52
2022/08/21 00:36:04;;;;;;;8.40;1.70;;;;;;;17.56;52.32;100799.66;5076425;28;20039;-52
2022/08/21 00:38:30;;;;;;;2.80;1.20;;;;;;;17.59;52.81;100791.03;5058674;28;20374;-54
2022/08/21 00:40:59;;;;;;;4.88;1.38;;;;;;;17.64;52.50;100790.34;5076601;28;20090;-50
2022/08/21 00:43:29;;;;;;;6.18;1.63;;;;;;;17.65;52.59;100786.56;5058599;28;20033;-53
2022/08/21 00:45:56;;;;;;;3.72;1.50;;;;;;;17.64;52.63;100774.03;5074685;28;20028;-53
2022/08/21 00:48:23;;;;;;;6.90;1.80;;;;;;;17.66;54.27;100780.06;5075948;28;20020;-54
2022/08/21 00:50:57;;;;;;;5.38;1.85;;;;;;;17.70;54.21;100773.09;5071348;28;20064;-54
2022/08/21 00:53:24;;;;;;;9.85;1.95;;;;;;;17.71;53.80;100777.47;5056547;28;20059;-52
2022/08/21 00:55:51;;;;;;;7.80;2.00;;;;;;;17.67;54.24;100777.13;5054868;28;20041;-53
2022/08/21 00:58:18;;;;;;;7.95;1.70;;;;;;;17.60;53.92;100763.63;5056622;28;20033;-51
2022/08/21 01:00:47;;;;;;;6.55;1.67;;;;;;;17.63;54.94;100780.53;5055785;28;20489;-48
2022/08/21 01:03:16;;;;;;;12.18;2.38;;;;;;;17.53;54.87;100776.50;5056203;28;20028;-49
2022/08/21 01:05:43;;;;;;;6.70;1.60;;;;;;;17.40;55.28;100769.38;5071822;28;20489;-53
2022/08/21 01:08:10;;;;;;;11.25;2.03;;;;;;;17.35;55.68;100754.84;5056561;28;20067;-51
2022/08/21 01:10:36;;;;;;;3.35;1.25;;;;;;;17.32;55.29;100747.97;5055756;28;20035;-53
2022/08/21 01:13:04;;;;;;;6.72;1.77;;;;;;;17.31;54.83;100750.91;5071169;28;20029;-54
2022/08/21 01:15:34;;;;;;;4.97;1.40;;;;;;;17.29;55.11;100761.19;5054302;28;20056;-54
2022/08/21 01:18:01;;;;;;;7.57;1.85;;;;;;;17.31;56.10;100768.06;5055924;28;20469;-52
2022/08/21 01:20:27;;;;;;;4.43;2.00;;;;;;;17.17;55.92;100751.13;5054011;28;20041;-53
2022/08/21 01:22:53;;;;;;;9.57;1.50;;;;;;;17.13;55.84;100760.78;5055483;28;20026;-51
2022/08/21 01:25:20;;;;;;;6.55;1.45;;;;;;;17.15;56.54;100774.13;5055205;28;20354;-54
2022/08/21 01:27:47;;;;;;;6.55;1.60;;;;;;;17.10;56.73;100772.09;5055768;28;20079;-51
2022/08/21 01:30:19;;;;;;;7.97;1.77;;;;;;;17.03;56.94;100764.06;5055595;28;20036;-51
2022/08/21 01:32:47;;;;;;;9.70;1.70;;;;;;;17.07;57.02;100774.44;5055146;28;20095;-50
2022/08/21 01:35:15;;;;;;;6.05;1.60;;;;;;;17.00;56.84;100769.09;5055205;28;20450;-53
2022/08/21 01:37:42;;;;;;;15.07;1.90;;;;;;;16.99;57.31;100781.00;5054885;28;20032;-51
2022/08/21 01:40:10;;;;;;;8.90;1.73;;;;;;;16.86;57.86;100760.28;5070344;28;20032;-51
2022/08/21 01:42:39;;;;;;;2.97;1.30;;;;;;;16.86;57.44;100768.44;5054986;28;20025;-48
2022/08/21 01:45:06;;;;;;;4.47;1.33;;;;;;;16.88;57.53;100779.88;5055013;28;20112;-51
2022/08/21 01:47:32;;;;;;;6.57;1.60;;;;;;;16.76;57.30;100777.06;5055378;28;20036;-52
2022/08/21 01:49:58;;;;;;;7.57;1.88;;;;;;;16.79;58.20;100787.47;5054578;28;20033;-51
2022/08/21 01:52:24;;;;;;;4.25;1.45;;;;;;;16.74;58.59;100783.78;5053325;28;20486;-49
2022/08/21 01:54:50;;;;;;;3.60;1.40;;;;;;;16.68;58.06;100781.97;5069994;28;20040;-52
2022/08/21 01:57:16;;;;;;;2.13;1.25;;;;;;;16.64;58.17;100784.31;5070001;28;20052;-53
2022/08/21 01:59:42;;;;;;;4.38;1.00;;;;;;;16.63;58.46;100785.38;5054757;28;20078;-49
2022/08/21 02:02:08;;;;;;;6.72;1.70;;;;;;;16.50;58.89;100755.69;5052506;28;20032;-51
2022/08/21 02:04:34;;;;;;;13.20;1.63;;;;;;;16.60;59.18;100774.97;5053529;28;20025;-55
2022/08/21 02:07:01;;;;;;;9.98;2.17;;;;;;;16.56;59.14;100771.88;5054749;28;20454;-51
2022/08/21 02:09:27;;;;;;;6.28;1.50;;;;;;;16.51;59.13;100773.59;5070644;28;20515;-51
2022/08/21 02:11:53;;;;;;;6.93;1.63;;;;;;;16.37;59.42;100757.50;5055375;28;20112;-53
2022/08/21 02:14:19;;;;;;;6.53;1.88;;;;;;;16.36;60.18;100776.69;5054581;28;20029;-52
2022/08/21 02:16:46;;;;;;;4.30;1.40;;;;;;;16.31;59.98;100774.66;5054596;28;20448;-51
2022/08/21 02:19:13;;;;;;;4.30;1.48;;;;;;;16.28;59.75;100777.81;5054599;28;20033;-54
2022/08/21 02:21:40;;;;;;;3.10;1.00;;;;;;;16.22;60.40;100768.69;5053373;28;20029;-55
2022/08/21 02:24:06;;;;;;;4.80;1.10;;;;;;;16.16;60.75;100774.19;5054886;28;20489;-53
2022/08/21 02:26:32;;;;;;;3.65;1.17;;;;;;;16.06;60.83;100766.56;5055456;28;20153;-49
2022/08/21 02:28:58;;;;;;;5.32;1.50;;;;;;;15.95;61.25;100757.25;5054802;28;20036;-51
2022/08/21 02:31:24;;;;;;;1.85;1.02;;;;;;;15.91;60.87;100749.81;5054895;28;20078;-53
2022/08/21 02:33:51;;;;;;;3.35;1.15;;;;;;;15.95;61.94;100767.28;5054708;28;20371;-50
2022/08/21 02:36:17;;;;;;;6.50;1.83;;;;;;;15.84;62.19;100763.41;5054324;28;20052;-50
2022/08/21 02:38:43;;;;;;;6.70;2.10;;;;;;;15.79;62.36;100764.09;5054199;28;20032;-50
2022/08/21 02:41:15;;;;;;;5.25;1.60;;;;;;;15.75;63.52;100775.56;5052806;28;20079;-53
2022/08/21 02:43:42;;;;;;;6.20;1.75;;;;;;;15.72;63.67;100781.41;5036073;28;20029;-49
2022/08/21 02:46:09;;;;;;;5.47;1.80;;;;;;;15.72;62.69;100789.53;5052920;28;20124;-53
2022/08/21 02:48:36;;;;;;;6.60;1.75;;;;;;;15.67;62.66;100780.19;5054434;28;20029;-53
2022/08/21 02:51:07;;;;;;;8.15;1.70;;;;;;;15.65;63.01;100781.44;5060234;28;20432;-52
2022/08/21 02:53:34;;;;;;;5.15;1.63;;;;;;;15.60;63.56;100790.25;5055886;28;20025;-50
2022/08/21 02:56:02;;;;;;;4.63;1.50;;;;;;;15.59;63.00;100788.56;5072654;28;20461;-50
2022/08/21 02:58:34;;;;;;;4.43;1.65;;;;;;;15.55;63.63;100784.63;5074151;28;20035;-52
2022/08/21 03:00:59;;;;;;;5.95;1.88;;;;;;;15.56;63.86;100782.75;5055782;28;20483;-52
2022/08/21 03:03:26;;;;;;;6.68;1.80;;;;;;;15.51;64.63;100779.88;5056223;28;20077;-53
2022/08/21 03:05:52;;;;;;;3.30;1.23;;;;;;;15.47;64.62;100774.91;5074045;28;20044;-54
2022/08/21 03:08:20;;;;;;;5.05;1.58;;;;;;;15.45;65.15;100774.31;5074043;28;20039;-53
2022/08/21 03:10:50;;;;;;;5.13;1.48;;;;;;;15.49;64.73;100777.41;5074229;28;20033;-50
2022/08/21 03:13:19;;;;;;;5.93;1.83;;;;;;;15.55;64.40;100783.81;5076745;28;20028;-54
2022/08/21 03:15:44;;;;;;;4.75;1.58;;;;;;;15.37;64.80;100743.97;5060255;28;20034;-53
2022/08/21 03:18:11;;;;;;;3.42;1.40;;;;;;;15.60;64.10;100775.84;5043597;28;20051;-54
2022/08/21 03:20:39;;;;;;;2.67;1.27;;;;;;;15.56;65.23;100766.50;5078522;28;20346;-54
2022/08/21 03:23:06;;;;;;;9.80;1.98;;;;;;;15.44;65.18;100744.75;5079353;28;20039;-52
2022/08/21 03:25:32;;;;;;;4.13;1.65;;;;;;;15.46;65.03;100750.75;5079577;28;20036;-49
2022/08/21 03:27:59;;;;;;;10.93;2.05;;;;;;;15.43;66.27;100767.44;5078711;28;20047;-52
2022/08/21 03:30:25;;;;;;;7.20;2.20;;;;;;;15.40;66.85;100776.00;5081725;28;20160;-51
2022/08/21 03:32:51;;;;;;;6.28;1.55;;;;;;;15.37;66.48;100771.03;5083195;28;20477;-51
2022/08/21 03:35:18;;;;;;;7.97;1.95;;;;;;;15.36;66.96;100767.50;5081020;28;20054;-50
2022/08/21 03:37:44;;;;;;;8.13;1.95;;;;;;;15.22;66.88;100744.25;5080173;28;20033;-53
2022/08/21 03:40:12;;;;;;;4.13;1.40;;;;;;;15.29;67.05;100774.81;5060594;28;20024;-50
2022/08/21 03:42:39;;;;;;;7.72;1.80;;;;;;;15.32;66.51;100771.66;5077841;28;20033;-50
2022/08/21 03:45:06;;;;;;;11.15;2.45;;;;;;;15.28;67.48;100763.16;5078177;28;20721;-53
2022/08/21 03:47:32;;;;;;;4.82;1.48;;;;;;;15.32;66.91;100776.25;5077879;28;20036;-53
2022/08/21 03:49:59;;;;;;;4.35;1.25;;;;;;;15.29;67.26;100766.69;5077257;28;20036;-50
2022/08/21 03:52:25;;;;;;;4.97;1.30;;;;;;;15.29;66.42;100766.69;5077144;28;20058;-52
2022/08/21 03:54:51;;;;;;;6.00;1.33;;;;;;;15.36;66.16;100772.91;5059339;28;20429;-54
2022/08/21 03:57:17;;;;;;;3.72;1.48;;;;;;;15.32;67.18;100760.84;5076721;28;20071;-49
2022/08/21 03:59:43;;;;;;;9.15;2.03;;;;;;;15.29;67.19;100767.53;5076903;28;20029;-51
2022/08/21 04:02:09;;;;;;;4.32;1.42;;;;;;;15.18;67.13;100746.56;5077067;28;20108;-52
2022/08/21 04:04:36;;;;;;;8.13;1.67;;;;;;;15.29;67.32;100767.53;5076934;28;20024;-52
2022/08/21 04:07:02;;;;;;;4.63;1.30;;;;;;;15.29;66.79;100764.81;5059241;28;20056;-51
2022/08/21 04:09:29;;;;;;;8.52;1.50;;;;;;;15.32;66.67;100765.41;5059391;28;20070;-49
2022/08/21 04:11:56;;;;;;;6.47;1.67;;;;;;;15.28;67.60;100765.88;5059206;28;20034;-52
2022/08/21 04:14:22;;;;;;;5.38;2.03;;;;;;;15.23;68.18;100768.41;5076698;28;20060;-52
2022/08/21 04:16:48;;;;;;;6.20;2.15;;;;;;;15.21;68.45;100767.78;5076908;28;20052;-54
2022/08/21 04:19:14;;;;;;;3.35;1.20;;;;;;;15.17;68.18;100766.53;5076730;28;20032;-52
2022/08/21 04:21:40;;;;;;;5.55;1.42;;;;;;;15.16;67.49;100759.47;5075943;28;20047;-53
2022/08/21 04:24:09;;;;;;;10.73;2.20;;;;;;;15.20;68.87;100771.53;5076038;28;20040;-53
2022/08/21 04:26:37;;;;;;;4.78;1.60;;;;;;;15.21;67.66;100775.06;5058437;28;20032;-52
2022/08/21 04:29:06;;;;;;;6.65;1.80;;;;;;;15.22;68.18;100769.44;5076559;28;20108;-48
2022/08/21 04:31:33;;;;;;;6.82;1.75;;;;;;;15.21;68.13;100775.06;5076336;28;20057;-53
2022/08/21 04:33:59;;;;;;;4.03;1.58;;;;;;;15.19;68.24;100774.44;5076170;28;20028;-52
2022/08/21 04:36:25;;;;;;;7.68;1.70;;;;;;;15.12;69.07;100777.19;5076423;28;20050;-50
2022/08/21 04:38:51;;;;;;;7.30;1.50;;;;;;;15.06;68.64;100767.22;5076314;28;20033;-51
2022/08/21 04:41:17;;;;;;;3.40;1.40;;;;;;;15.11;68.63;100772.81;5057959;28;20050;-51
2022/08/21 04:43:43;;;;;;;4.28;1.40;;;;;;;15.16;68.12;100778.41;5058066;28;20536;-52
2022/08/21 04:46:09;;;;;;;6.45;1.80;;;;;;;15.19;67.99;100791.53;5076270;28;20043;-54
2022/08/21 04:48:34;;;;;;;4.82;1.35;;;;;;;15.17;68.08;100787.34;5058443;28;20063;-52
2022/08/21 04:51:15;;;;;;;5.60;1.98;;;;;;;15.09;69.29;100789.25;5054589;28;20056;-52
2022/08/21 04:54:02;;;;;;;11.23;1.90;;;;;;;14.92;69.09;100758.34;5071299;28;20154;-49
2022/08/21 04:56:36;;;;;;;6.13;1.60;;;;;;;15.01;69.74;100791.41;5054751;28;20037;-52
2022/08/21 04:59:10;;;;;;;5.35;1.80;;;;;;;14.96;69.32;100789.34;5054803;28;20033;-53
2022/08/21 05:01:37;;;;;;;6.50;1.73;;;;;;;14.97;68.98;100798.25;5056252;28;20024;-48
2022/08/21 05:04:05;;;;;;;6.07;1.80;;;;;;;14.91;70.12;100797.25;5055449;28;20064;-52
2022/08/21 05:06:34;;;;;;;8.77;2.03;;;;;;;14.85;70.66;100790.81;5055312;28;20032;-51
2022/08/21 05:09:01;;;;;;;5.63;1.60;;;;;;;14.90;69.01;100787.50;5070826;28;20029;-53
2022/08/21 05:11:27;;;;;;;4.22;1.77;;;;;;;14.87;70.18;100794.13;5055720;28;20063;-52
2022/08/21 05:13:53;;;;;;;7.82;1.90;;;;;;;14.86;69.33;100792.50;5055342;28;20473;-52
2022/08/21 05:16:19;;;;;;;7.13;1.85;;;;;;;14.77;69.71;100779.44;5054781;28;20025;-51
2022/08/21 05:18:45;;;;;;;9.68;1.63;;;;;;;14.84;69.94;100797.28;5071063;28;20035;-50
2022/08/21 05:21:11;;;;;;;3.42;1.38;;;;;;;14.92;69.55;100814.31;5054144;28;20041;-52
2022/08/21 05:23:36;;;;;;;5.35;1.15;;;;;;;14.93;69.01;100816.78;5055491;28;20036;-51
2022/08/21 05:26:04;;;;;;;3.75;0.95;;;;;;;14.93;69.67;100811.38;5055679;28;20359;-53
2022/08/21 05:28:30;;;;;;;4.15;1.20;;;;;;;14.81;69.31;100794.19;5056514;28;20051;-51
2022/08/21 05:30:56;;;;;;;9.38;2.05;;;;;;;14.89;70.10;100812.88;5055340;28;20074;-52
2022/08/21 05:33:22;;;;;;;3.83;1.42;;;;;;;14.90;69.78;100814.53;5055014;28;20424;-53
2022/08/21 05:35:52;;;;;;;5.78;1.42;;;;;;;14.88;70.58;100828.25;5070237;28;20036;-50
2022/08/21 05:38:18;;;;;;;8.75;2.47;;;;;;;14.79;70.81;100815.19;5054956;28;20064;-52
2022/08/21 05:40:44;;;;;;;9.98;2.05;;;;;;;14.89;70.98;100829.94;5054998;28;20028;-52
2022/08/21 05:43:09;;;;;;;5.85;1.48;;;;;;;14.86;71.16;100838.47;5055302;28;20089;-51
2022/08/21 05:45:35;;;;;;;9.15;2.08;;;;;;;14.84;71.44;100847.81;5055090;28;20064;-51
2022/08/21 05:48:21;;;;;;;5.88;1.58;;;;;;;14.87;71.18;100850.94;5054845;28;20033;-52
2022/08/21 05:50:48;;;;;;;8.38;1.90;;;;;;;14.93;70.20;100838.44;5058464;28;20056;-52
2022/08/21 05:53:16;;;;;;;5.88;1.42;;;;;;;15.02;70.47;100844.44;5057269;28;20035;-52
2022/08/21 05:55:43;;;;;;;7.03;1.88;;;;;;;14.93;71.19;100837.59;5057305;28;20469;-50
2022/08/21 05:58:09;;;;;;;8.40;2.30;;;;;;;14.94;71.50;100823.88;5074774;28;20036;-49
2022/08/21 06:00:35;;;;;;;10.70;2.17;;;;;;;15.02;71.65;100833.63;5074716;28;20438;-51
2022/08/21 06:03:00;;;;;;;4.72;1.73;;;;;;;14.94;71.52;100823.06;5075110;28;20035;-53
2022/08/21 06:05:26;;;;;;;8.18;1.73;;;;;;;15.21;70.76;100845.41;5074869;28;20453;-49
2022/08/21 06:07:52;;;;;;;5.35;1.35;;;;;;;15.33;69.53;100840.97;5074810;28;20063;-48
2022/08/21 06:10:18;;;;;;;9.18;1.85;;;;;;;15.36;70.36;100842.41;5075732;28;20068;-51
2022/08/21 06:12:44;;;;;;;6.60;1.85;;;;;;;15.32;70.33;100830.38;5073747;28;20509;-48
2022/08/21 06:15:11;;;;;;;9.63;2.10;;;;;;;15.30;70.53;100825.16;5075260;28;20546;-53
2022/08/21 06:17:37;;;;;;;8.85;2.25;;;;;;;15.55;70.19;100846.09;5074816;28;20071;-52
2022/08/21 06:20:04;;;;;;;10.70;1.98;;;;;;;15.67;69.33;100842.47;5075232;28;20044;-50
2022/08/21 06:22:30;;;;;;;7.38;1.67;;;;;;;15.73;69.25;100846.19;5074680;28;20124;-52
2022/08/21 06:24:56;;;;;;;11.20;1.90;;;;;;;15.77;69.03;100835.78;5074914;28;20113;-51
2022/08/21 06:27:21;;;;;;;4.32;1.73;;;;;;;15.89;69.10;100844.00;5074036;28;20043;-51
2022/08/21 06:29:47;;;;;;;11.95;1.92;;;;;;;16.00;68.47;100833.28;5076333;28;20032;-50
2022/08/21 06:32:13;;;;;;;6.22;1.83;;;;;;;16.14;67.90;100835.88;5075421;28;20044;-49
2022/08/21 06:34:40;;;;;;;4.53;1.75;;;;;;;16.28;67.32;100832.00;5076019;28;20028;-51
2022/08/21 06:37:07;;;;;;;8.25;2.10;;;;;;;16.34;67.12;100836.53;5075122;28;20028;-51
2022/08/21 06:39:34;;;;;;;8.32;1.67;;;;;;;16.38;66.85;100834.22;5075657;28;20067;-52
2022/08/21 06:42:00;;;;;;;7.65;1.40;;;;;;;16.48;65.92;100829.13;5056849;28;20036;-52
2022/08/21 06:44:26;;;;;;;10.43;2.20;;;;;;;16.67;65.55;100838.09;5074950;28;20439;-49
2022/08/21 06:46:52;;;;;;;9.95;2.25;;;;;;;16.73;65.55;100839.91;5074247;28;20445;-53
2022/08/21 06:49:18;;;;;;;7.78;1.85;;;;;;;16.79;64.93;100851.72;5074698;28;20060;-51
2022/08/21 06:51:44;;;;;;;9.43;2.92;;;;;;;16.72;65.07;100822.00;5056208;28;20099;-49
2022/08/21 06:54:10;;;;;;;12.25;1.92;;;;;;;16.77;65.18;100818.59;5074099;28;20028;-50
2022/08/21 06:56:37;;;;;;;8.70;1.90;;;;;;;16.89;65.54;100833.09;5056360;28;20027;-49
2022/08/21 06:59:05;;;;;;;11.48;2.97;;;;;;;16.92;65.23;100837.22;5074206;28;20028;-52
2022/08/21 07:01:31;;;;;;;7.32;1.83;;;;;;;16.96;64.78;100828.41;5056530;28;20060;-49
2022/08/21 07:03:57;;;;;;;7.88;2.25;;;;;;;16.93;65.64;100823.44;5056495;28;20082;-49
2022/08/21 07:06:23;;;;;;;8.05;2.17;;;;;;;17.03;65.26;100828.31;5073814;28;20032;-53
2022/08/21 07:08:49;;;;;;;10.20;1.85;;;;;;;17.02;65.14;100819.38;5074761;28;20044;-47
2022/08/21 07:11:19;;;;;;;10.48;1.63;;;;;;;17.22;64.46;100824.53;5075521;28;20028;-52
2022/08/21 07:13:45;;;;;;;8.82;2.05;;;;;;;17.25;65.13;100825.13;5074650;28;20117;-50
2022/08/21 07:16:11;;;;;;;9.50;1.88;;;;;;;17.20;64.78;100821.22;5074484;28;20128;-52
2022/08/21 07:18:37;;;;;;;9.38;2.40;;;;;;;17.23;65.23;100822.66;5074815;28;20024;-53
2022/08/21 07:21:05;;;;;;;5.22;1.85;;;;;;;17.35;64.17;100818.13;5040057;28;20060;-52
2022/08/21 07:23:36;;;;;;;7.55;1.52;;;;;;;17.44;64.10;100809.63;5056627;28;20064;-48
2022/08/21 07:26:03;;;;;;;12.57;1.88;;;;;;;17.47;63.83;100809.19;5075633;28;20120;-49
2022/08/21 07:28:29;;;;;;;12.25;1.92;;;;;;;17.46;64.07;100802.06;5074434;28;20028;-49
2022/08/21 07:30:57;;;;;;;12.73;2.63;;;;;;;17.36;64.55;100803.47;5073777;28;20036;-48
2022/08/21 07:33:25;;;;;;;5.32;1.88;;;;;;;17.36;64.14;100803.47;5073385;28;20032;-51
2022/08/21 07:35:51;;;;;;;11.68;2.25;;;;;;;17.36;63.97;100800.75;5055900;28;20119;-48
2022/08/21 07:38:18;;;;;;;8.80;1.92;;;;;;;17.28;64.41;100806.50;5055603;28;20112;-52
2022/08/21 07:40:44;;;;;;;10.77;2.15;;;;;;;17.39;64.19;100819.31;5074064;28;20112;-51
2022/08/21 07:43:10;;;;;;;13.20;1.92;;;;;;;17.11;63.60;100759.38;5056112;28;20108;-50
2022/08/21 07:45:37;;;;;;;9.70;1.67;;;;;;;17.54;63.38;100818.06;5074113;28;20032;-51
2022/08/21 07:48:03;;;;;;;8.23;2.08;;;;;;;17.64;63.09;100822.94;5056426;28;20039;-51
2022/08/21 07:50:29;;;;;;;8.55;1.92;;;;;;;17.75;62.64;100824.84;5072876;28;20039;-50
2022/08/21 07:52:55;;;;;;;11.30;2.55;;;;;;;17.84;63.11;100822.63;5074719;28;20100;-53
2022/08/21 07:55:21;;;;;;;12.35;3.15;;;;;;;17.93;62.66;100823.97;5074323;28;20112;-53
2022/08/21 07:57:48;;;;;;;12.40;3.03;;;;;;;17.88;63.00;100816.50;5074843;28;20032;-49
2022/08/21 08:00:17;;;;;;;11.68;2.55;;;;;;;18.07;62.12;100817.28;5077662;28;20029;-48
2022/08/21 08:02:49;;;;;;;10.02;2.25;;;;;;;18.31;61.32;100822.69;5077729;28;20081;-49
2022/08/21 08:05:16;;;;;;;10.73;2.50;;;;;;;18.45;61.01;100815.16;5077514;28;20039;-48
2022/08/21 08:07:42;;;;;;;3.70;1.50;;;;;;;18.66;60.68;100809.06;5059612;28;20039;-49
2022/08/21 08:10:09;;;;;;;11.00;2.28;;;;;;;18.80;60.22;100806.13;5078141;28;20029;-50
2022/08/21 08:12:36;;;;;;;11.20;2.75;;;;;;;18.87;60.02;100802.22;5061024;28;20036;-52
2022/08/21 08:15:06;;;;;;;12.63;2.53;;;;;;;18.93;59.49;100803.97;5078914;28;20029;-52
2022/08/21 08:17:32;;;;;;;7.32;2.25;;;;;;;19.12;59.19;100804.63;5076892;28;20029;-50
2022/08/21 08:20:00;;;;;;;9.30;2.40;;;;;;;19.23;58.54;100804.84;5078370;28;20025;-47
2022/08/21 08:22:27;;;;;;;18.63;2.90;;;;;;;19.36;57.92;100803.72;5078310;28;20090;-52
2022/08/21 08:24:53;;;;;;;10.68;2.17;;;;;;;19.59;57.33;100813.66;5077875;28;20111;-49
2022/08/21 08:27:20;;;;;;;13.20;3.05;;;;;;;19.80;56.52;100812.13;5077169;28;20082;-49
2022/08/21 08:29:46;;;;;;;15.75;2.67;;;;;;;19.92;55.51;100807.44;5059090;28;20094;-51
2022/08/21 08:32:13;;;;;;;8.27;2.17;;;;;;;20.06;55.51;100797.06;5059056;28;20036;-50
2022/08/21 08:34:39;;;;;;;9.77;2.75;;;;;;;20.02;55.08;100782.25;5076854;28;20029;-52
2022/08/21 08:37:09;;;;;;;11.65;2.15;;;;;;;20.03;55.31;100805.72;5058770;28;20074;-49
2022/08/21 08:39:34;;;;;;;7.32;2.00;;;;;;;20.11;55.16;100797.97;5058831;28;20034;-53
2022/08/21 08:42:27;;;;;;;14.40;2.50;;;;;;;20.25;54.28;100794.88;5059653;28;20029;-50
2022/08/21 08:45:00;;;;;;;5.63;2.20;;;;;;;20.35;53.54;100795.00;5077408;28;20116;-51
2022/08/21 08:47:27;;;;;;;10.50;2.40;;;;;;;20.32;53.39;100795.53;5077066;28;20080;-48
2022/08/21 08:50:16;;;;;;;8.73;2.58;;;;;;;20.23;52.58;100775.22;5077200;28;20378;-52
2022/08/21 08:52:49;;;;;;;8.73;2.97;;;;;;;20.71;52.03;100794.72;5077285;28;20123;-53
2022/08/21 08:55:23;;;;;;;7.70;1.95;;;;;;;21.01;51.06;100789.63;5077813;28;20028;-52
2022/08/21 08:57:51;;;;;;;8.75;2.83;;;;;;;21.27;50.33;100790.75;5077114;28;20028;-49
2022/08/21 09:00:20;;;;;;;10.30;2.92;;;;;;;21.39;49.66;100798.78;5077689;28;20364;-48
2022/08/21 09:02:47;;;;;;;7.22;2.60;;;;;;;21.51;49.76;100790.47;5076949;28;20036;-50
2022/08/21 09:05:42;;;;;;;10.25;2.63;;;;;;;21.58;48.61;100802.03;5060053;28;20031;-53
2022/08/21 09:08:38;;;;;;;7.93;2.72;;;;;;;21.64;48.42;100791.97;5075509;28;20040;-54
2022/08/21 09:11:28;;;;;;;6.68;2.33;;;;;;;21.88;47.69;100800.66;5074473;28;20028;-50
2022/08/21 09:14:13;;;;;;;9.07;2.10;;;;;;;22.01;47.38;100794.72;5061301;28;20029;-50
2022/08/21 09:17:10;;;;;;;12.50;2.85;;;;;;;22.37;47.15;100791.44;5074948;28;20028;-50
2022/08/21 09:19:55;;;;;;;6.97;1.90;;;;;;;22.70;46.65;100809.41;5075060;28;20425;-49
2022/08/21 09:22:49;;;;;;;15.55;2.85;;;;;;;22.63;45.64;100795.13;5057644;28;20024;-48
2022/08/21 09:25:25;;;;;;;10.83;2.70;;;;;;;22.69;45.80;100796.81;5075087;28;20039;-48
2022/08/21 09:27:51;;;;;;;8.55;2.08;;;;;;;23.07;46.18;100783.84;5058249;28;20043;-52
2022/08/21 09:30:19;;;;;;;9.18;2.25;;;;;;;23.44;44.46;100790.22;5075809;28;20036;-51
2022/08/21 09:32:45;;;;;;;11.10;2.35;;;;;;;23.41;44.96;100779.81;5057936;28;20028;-49
2022/08/21 09:35:17;;;;;;;8.60;2.30;;;;;;;23.68;43.50;100793.25;5058436;28;20025;-51
2022/08/21 09:37:52;;;;;;;6.13;2.45;;;;;;;23.80;43.08;100793.84;5076770;28;20024;-48
2022/08/21 09:40:41;;;;;;;8.02;2.50;;;;;;;23.71;43.31;100799.03;5075966;28;20032;-49
2022/08/21 09:43:18;;;;;;;8.93;2.30;;;;;;;23.61;43.08;100800.97;5074564;28;20119;-49
2022/08/21 09:45:46;;;;;;;8.75;2.47;;;;;;;23.75;44.02;100797.41;5075339;28;20029;-49
2022/08/21 09:48:17;;;;;;;7.25;2.35;;;;;;;23.88;44.12;100804.25;5040951;28;20056;-50
2022/08/21 09:50:44;;;;;;;6.07;2.05;;;;;;;23.96;43.99;100808.41;5057040;28;20045;-51
2022/08/21 09:53:23;;;;;;;9.77;2.20;;;;;;;23.85;42.59;100801.28;5074996;28;20465;-53
2022/08/21 09:58:45;;;;;;;7.80;2.47;;;;;;;23.58;43.05;100805.84;5059773;28;20030;-50
2022/08/21 10:01:19;;;;;;;8.00;2.45;;;;;;;23.53;42.93;100800.41;5056793;28;20036;-50
2022/08/21 10:03:46;;;;;;;5.68;2.38;;;;;;;23.69;44.12;100806.69;5074884;28;20041;-50
2022/08/21 10:06:24;;;;;;;8.00;2.45;;;;;;;23.80;43.13;100804.81;5075054;28;20025;-49
2022/08/21 10:08:50;;;;;;;7.30;2.33;;;;;;;24.01;42.99;100802.88;5058447;28;20070;-50
2022/08/21 10:11:23;;;;;;;7.40;2.03;;;;;;;24.14;42.15;100813.34;5058377;28;20028;-49
2022/08/21 10:14:02;;;;;;;9.23;2.65;;;;;;;23.92;41.05;100812.78;5074087;28;20036;-50
2022/08/21 10:17:07;;;;;;;5.82;1.77;;;;;;;23.77;41.91;100819.88;5057358;28;20029;-48
2022/08/21 10:19:59;;;;;;;4.40;1.70;;;;;;;23.65;42.01;100813.84;5073994;28;20532;-49
2022/08/21 10:22:38;;;;;;;5.68;1.90;;;;;;;23.50;42.84;100811.09;5055709;28;20377;-48
2022/08/21 10:25:17;;;;;;;11.52;2.50;;;;;;;23.24;43.07;100791.84;5074554;28;20035;-50
2022/08/21 10:28:13;;;;;;;6.57;2.20;;;;;;;23.31;42.46;100800.63;5074129;28;20031;-50
2022/08/21 10:30:54;;;;;;;9.00;2.00;;;;;;;23.21;42.89;100803.31;5057072;28;20338;-50
2022/08/21 10:33:43;;;;;;;8.57;2.15;;;;;;;23.04;43.37;100805.47;5074002;28;20029;-50
2022/08/21 10:36:35;;;;;;;7.47;2.10;;;;;;;22.85;43.51;100805.09;5073962;28;20037;-49
2022/08/21 10:39:33;;;;;;;4.72;2.13;;;;;;;22.88;44.45;100797.19;5073607;28;20055;-49
2022/08/21 10:42:25;;;;;;;12.90;2.25;;;;;;;22.91;43.97;100804.84;5074855;28;20530;-50
2022/08/21 10:45:15;;;;;;;4.00;1.63;;;;;;;22.95;42.89;100802.41;5073760;28;20043;-50
2022/08/21 10:47:48;;;;;;;8.75;2.10;;;;;;;22.88;43.37;100791.72;5040065;28;20104;-50
2022/08/21 10:50:41;;;;;;;6.38;1.92;;;;;;;22.94;43.65;100807.06;5074345;28;20538;-51
2022/08/21 10:53:32;;;;;;;6.40;2.15;;;;;;;22.89;43.44;100798.00;5074601;28;20409;-51
2022/08/21 10:56:10;;;;;;;8.98;2.13;;;;;;;22.86;43.32;100807.56;5073621;28;20044;-49
2022/08/21 10:58:45;;;;;;;6.93;2.17;;;;;;;22.83;43.46;100805.38;5073094;28;20036;-49
2022/08/21 11:01:20;;;;;;;5.03;1.77;;;;;;;22.77;42.96;100798.19;5074361;28;20029;-52
2022/08/21 11:03:54;;;;;;;7.25;2.10;;;;;;;22.89;43.51;100789.78;5073205;28;20369;-49
2022/08/21 11:06:27;;;;;;;6.18;2.33;;;;;;;22.93;43.47;100778.00;5056058;28;20032;-51
2022/08/21 11:08:59;;;;;;;6.00;2.30;;;;;;;23.05;43.78;100780.56;5074106;28;20047;-52
2022/08/21 11:11:56;;;;;;;4.88;1.83;;;;;;;23.19;42.48;100803.59;5056117;28;20025;-49
2022/08/21 11:14:39;;;;;;;7.25;2.35;;;;;;;23.25;42.38;100796.22;5072772;28;20042;-50
2022/08/21 11:17:10;;;;;;;4.35;1.80;;;;;;;23.42;41.30;100801.47;5073395;28;20475;-52
2022/08/21 11:19:59;;;;;;;3.63;1.70;;;;;;;23.71;41.14;100800.94;5055834;28;20031;-51
2022/08/21 11:22:34;;;;;;;7.47;2.45;;;;;;;23.98;40.21;100795.22;5055898;28;20040;-49
2022/08/21 11:25:08;;;;;;;7.25;2.70;;;;;;;24.21;40.34;100806.72;5073943;28;20039;-51
2022/08/21 11:27:43;;;;;;;9.95;2.95;;;;;;;24.44;40.02;100811.63;5073872;28;20521;-50
2022/08/21 11:30:09;;;;;;;15.68;7.13;;;;;;;24.78;39.53;100805.50;5073599;28;20364;-51
2022/08/21 11:32:56;;;;;;;14.25;5.55;;;;;;;25.06;38.86;100793.00;5072726;28;20109;-51
2022/08/21 11:35:43;;;;;;;10.27;3.08;;;;;;;25.11;37.98;100805.88;5077898;28;20025;-48
2022/08/21 11:38:38;;;;;;;6.30;2.10;;;;;;;25.07;37.78;100802.06;5077537;28;20442;-50
2022/08/21 11:41:29;;;;;;;7.55;2.13;;;;;;;25.12;37.19;100802.88;5075846;28;20477;-50